Time;durP1;ratioP1;P1;durP2;ratioP2;P2;SDS_P1;SDS_P2;PMS_P1;PMS_P2;Temp;Humidity;BMP_temperature;BMP_pressure;BME280_temperature;BME280_humidity;BME280_pressure;Samples;Min_cycle;Max_cycle;Signal;HPM_P1;HPM_P2
2021/12/20 00:02:02;;;;;;;73.97;68.68;;;;;;;3.86;100.00;100246.88;4970860;28;20047;-80
2021/12/20 00:04:28;;;;;;;73.78;68.55;;;;;;;4.20;100.00;100250.94;4969319;28;20051;-79
2021/12/20 00:06:55;;;;;;;77.22;71.78;;;;;;;3.92;100.00;100254.06;4964958;28;20436;-79
2021/12/20 00:09:23;;;;;;;85.50;79.32;;;;;;;3.88;100.00;100258.03;4965200;28;20086;-78
2021/12/20 00:11:50;;;;;;;83.43;77.45;;;;;;;3.99;100.00;100254.19;4964903;28;20055;-79
2021/12/20 00:14:17;;;;;;;84.18;78.10;;;;;;;4.63;100.00;100256.50;4965050;28;20055;-78
2021/12/20 00:16:43;;;;;;;89.70;83.32;;;;;;;3.89;100.00;100262.31;4971384;28;20109;-78
2021/12/20 00:19:10;;;;;;;90.47;84.32;;;;;;;3.82;100.00;100272.69;4970878;28;20112;-79
2021/12/20 00:21:37;;;;;;;81.28;75.63;;;;;;;3.99;100.00;100269.97;4975830;28;20050;-78
2021/12/20 00:24:05;;;;;;;81.45;75.63;;;;;;;3.97;100.00;100269.34;4967284;28;20054;-78
2021/12/20 00:26:33;;;;;;;88.28;82.25;;;;;;;4.06;100.00;100279.63;4965834;28;20054;-78
2021/12/20 00:29:00;;;;;;;92.68;86.15;;;;;;;4.17;100.00;100270.50;4970428;28;20050;-79
2021/12/20 00:31:27;;;;;;;81.90;76.10;;;;;;;4.05;100.00;100272.69;4973674;28;20050;-79
2021/12/20 00:33:55;;;;;;;87.38;81.38;;;;;;;3.83;100.00;100276.94;4975419;28;20496;-78
2021/12/20 00:36:22;;;;;;;91.60;85.70;;;;;;;3.98;100.00;100268.31;4965224;28;20118;-80
2021/12/20 00:41:36;;;;;;;90.95;84.93;;;;;;;4.02;100.00;100273.03;4964401;28;20110;-79
2021/12/20 00:44:03;;;;;;;87.03;80.95;;;;;;;4.04;100.00;100276.31;4967841;28;20058;-81
2021/12/20 00:46:30;;;;;;;82.45;76.93;;;;;;;3.79;100.00;100266.97;4967212;28;20046;-77
2021/12/20 00:48:57;;;;;;;89.75;83.88;;;;;;;4.28;100.00;100266.66;4967208;28;20598;-79
2021/12/20 00:51:23;;;;;;;93.05;87.20;;;;;;;3.67;100.00;100263.91;4963985;28;20043;-80
2021/12/20 00:53:50;;;;;;;88.72;83.05;;;;;;;4.09;100.00;100274.00;4968710;28;20102;-78
2021/12/20 00:56:17;;;;;;;88.30;82.30;;;;;;;3.72;100.00;100273.88;4963406;28;20051;-78
2021/12/20 00:58:46;;;;;;;90.47;84.40;;;;;;;3.81;100.00;100275.47;4971408;28;20051;-79
2021/12/20 01:01:13;;;;;;;93.20;87.30;;;;;;;3.84;100.00;100275.97;4962678;28;20051;-79
2021/12/20 01:03:40;;;;;;;88.35;82.38;;;;;;;3.81;100.00;100270.22;4965209;28;20066;-80
2021/12/20 01:06:07;;;;;;;89.00;83.05;;;;;;;4.35;100.00;100281.53;4963967;28;20047;-79
2021/12/20 01:08:37;;;;;;;86.47;80.45;;;;;;;4.02;100.00;100283.56;4965131;28;20492;-79
2021/12/20 01:11:04;;;;;;;94.03;87.43;;;;;;;3.73;100.00;100275.53;4972696;28;20070;-81
2021/12/20 01:13:33;;;;;;;90.25;84.15;;;;;;;3.95;100.00;100279.19;4976166;28;20058;-80
2021/12/20 01:16:05;;;;;;;93.93;87.78;;;;;;;4.11;100.00;100279.06;4966716;28;20078;-79
2021/12/20 01:18:32;;;;;;;90.85;85.07;;;;;;;3.79;100.00;100280.91;4969040;28;20078;-80
2021/12/20 01:20:58;;;;;;;90.35;84.30;;;;;;;4.34;100.00;100274.66;4975432;28;20046;-78
2021/12/20 01:23:25;;;;;;;101.28;94.28;;;;;;;3.61;100.00;100275.09;4971455;28;20066;-80
2021/12/20 01:25:52;;;;;;;104.50;97.40;;;;;;;3.72;100.00;100277.31;4965695;28;20059;-79
2021/12/20 01:28:19;;;;;;;99.55;92.50;;;;;;;3.61;100.00;100267.22;4968195;28;20051;-79
2021/12/20 01:30:45;;;;;;;102.57;95.40;;;;;;;3.40;100.00;100271.22;4967715;28;20095;-81
2021/12/20 01:33:14;;;;;;;116.25;108.30;;;;;;;3.30;100.00;100264.53;4968926;28;20118;-78
2021/12/20 01:35:41;;;;;;;106.45;99.05;;;;;;;3.42;100.00;100269.25;4974096;28;20496;-79
2021/12/20 01:38:09;;;;;;;106.03;98.50;;;;;;;3.26;100.00;100266.69;4965098;28;20562;-77
2021/12/20 01:40:39;;;;;;;106.10;98.05;;;;;;;3.28;100.00;100267.34;4969025;28;20554;-79
2021/12/20 01:43:09;;;;;;;113.03;105.35;;;;;;;3.31;100.00;100267.00;4965182;28;20051;-79
2021/12/20 01:45:35;;;;;;;103.13;95.82;;;;;;;3.54;100.00;100269.72;4969788;28;20047;-78
2021/12/20 01:48:06;;;;;;;103.22;95.60;;;;;;;3.22;100.00;100271.47;4969815;28;20479;-80
2021/12/20 01:50:49;;;;;;;112.40;104.78;;;;;;;3.17;100.00;100262.44;4973511;28;20047;-79
2021/12/20 01:53:21;;;;;;;107.80;100.45;;;;;;;3.43;100.00;100259.56;4962847;28;20055;-80
2021/12/20 01:55:49;;;;;;;107.22;99.78;;;;;;;3.29;100.00;100265.53;4961201;28;20055;-79
2021/12/20 01:58:15;;;;;;;106.25;98.78;;;;;;;3.89;100.00;100260.47;4965107;28;20149;-79
2021/12/20 02:03:27;;;;;;;109.53;101.93;;;;;;;3.02;100.00;100253.63;4963728;28;20054;-79
2021/12/20 02:05:59;;;;;;;110.93;103.78;;;;;;;3.58;100.00;100242.09;4966714;28;20059;-79
2021/12/20 02:08:29;;;;;;;118.37;110.40;;;;;;;3.82;100.00;100250.84;4961248;28;20402;-80
2021/12/20 02:10:57;;;;;;;110.68;103.03;;;;;;;2.84;100.00;100236.28;4964144;28;20105;-79
2021/12/20 02:13:28;;;;;;;118.30;110.57;;;;;;;3.62;100.00;100237.31;4974215;28;20047;-79
2021/12/20 02:15:55;;;;;;;112.57;105.05;;;;;;;2.93;100.00;100229.22;4965600;28;20122;-79
2021/12/20 02:18:23;;;;;;;107.82;100.22;;;;;;;2.69;100.00;100235.31;4962685;28;20500;-79
2021/12/20 02:20:51;;;;;;;108.38;100.88;;;;;;;2.81;100.00;100231.38;4972452;28;20125;-80
2021/12/20 02:23:18;;;;;;;114.72;106.65;;;;;;;2.98;100.00;100232.16;4970646;28;20055;-79
2021/12/20 02:25:45;;;;;;;108.50;101.28;;;;;;;2.91;100.00;100233.84;4962462;28;20047;-79
2021/12/20 02:28:13;;;;;;;110.18;102.57;;;;;;;2.66;100.00;100226.00;4969638;28;20051;-79
2021/12/20 02:30:52;;;;;;;108.57;101.32;;;;;;;3.02;100.00;100233.44;4963699;28;20501;-78
2021/12/20 02:39:00;;;;;;;115.50;107.82;;;;;;;2.85;100.00;100234.50;4961720;28;20448;-77
2021/12/20 02:41:31;;;;;;;116.78;108.97;;;;;;;2.57;100.00;100241.91;4968913;28;20129;-77
2021/12/20 02:44:04;;;;;;;130.30;121.72;;;;;;;2.40;100.00;100249.78;4971639;28;20109;-79
2021/12/20 02:46:47;;;;;;;125.53;117.03;;;;;;;2.45;100.00;100249.28;4969597;28;20134;-79
2021/12/20 02:49:15;;;;;;;119.43;111.00;;;;;;;2.61;100.00;100235.38;4969022;28;20043;-83
2021/12/20 02:51:45;;;;;;;132.55;124.32;;;;;;;2.98;100.00;100240.03;4977717;28;20051;-79
2021/12/20 02:54:13;;;;;;;129.70;121.43;;;;;;;2.56;100.00;100242.91;4972086;28;20650;-77
2021/12/20 02:56:42;;;;;;;121.18;113.78;;;;;;;2.80;100.00;100252.53;4969548;28;20412;-78
2021/12/20 02:59:09;;;;;;;122.32;114.32;;;;;;;3.20;100.00;100252.41;4972481;28;20123;-80
2021/12/20 03:01:40;;;;;;;122.85;114.70;;;;;;;2.57;100.00;100252.38;5093679;23;20168;-79
2021/12/20 03:04:07;;;;;;;117.55;109.90;;;;;;;2.37;100.00;100259.78;4996642;28;20485;-79
2021/12/20 03:06:39;;;;;;;119.55;111.05;;;;;;;3.11;100.00;100247.38;4995642;28;20153;-79
2021/12/20 03:09:09;;;;;;;117.82;110.20;;;;;;;2.96;100.00;100244.63;4996912;28;20046;-78
2021/12/20 03:11:36;;;;;;;125.00;116.90;;;;;;;2.33;100.00;100242.72;4994929;28;20380;-80
2021/12/20 03:14:14;;;;;;;126.10;117.93;;;;;;;2.49;100.00;100246.19;4989218;28;20074;-79
2021/12/20 03:16:42;;;;;;;118.90;111.10;;;;;;;3.02;100.00;100246.56;4997917;28;20129;-80
2021/12/20 03:19:08;;;;;;;121.00;113.10;;;;;;;2.78;100.00;100249.25;4991055;28;20054;-79
2021/12/20 03:21:35;;;;;;;131.75;123.43;;;;;;;2.75;100.00;100239.91;4981801;28;20124;-80
2021/12/20 03:24:04;;;;;;;131.00;122.85;;;;;;;2.84;100.00;100233.66;4996622;28;20530;-78
2021/12/20 03:26:32;;;;;;;111.07;103.60;;;;;;;2.66;100.00;100233.88;4995000;28;20050;-78
2021/12/20 03:28:59;;;;;;;107.57;100.75;;;;;;;2.82;100.00;100240.09;4997517;28;20054;-77
2021/12/20 03:31:26;;;;;;;114.20;106.78;;;;;;;2.51;100.00;100251.25;4998638;28;20062;-78
2021/12/20 03:33:53;;;;;;;118.63;111.35;;;;;;;2.33;100.00;100253.22;4996874;28;20077;-79
2021/12/20 03:36:19;;;;;;;116.88;109.15;;;;;;;2.41;100.00;100261.09;4998910;28;20112;-78
2021/12/20 03:38:48;;;;;;;110.90;103.55;;;;;;;3.08;100.00;100255.59;4997682;28;20463;-79
2021/12/20 03:41:15;;;;;;;119.57;111.72;;;;;;;2.50;100.00;100255.66;4997593;28;20057;-77
2021/12/20 03:43:43;;;;;;;117.38;109.60;;;;;;;2.40;100.00;100262.06;4996426;28;20121;-78
2021/12/20 03:46:10;;;;;;;114.10;106.38;;;;;;;2.46;100.00;100261.41;4993391;28;20061;-78
2021/12/20 03:48:37;;;;;;;117.45;109.88;;;;;;;2.53;100.00;100268.44;4995465;28;20116;-79
2021/12/20 03:51:05;;;;;;;118.47;110.55;;;;;;;2.46;100.00;100277.16;4999389;28;20050;-79
2021/12/20 03:53:34;;;;;;;121.30;113.28;;;;;;;2.69;100.00;100280.75;4997381;28;20100;-80
2021/12/20 03:56:01;;;;;;;129.73;121.10;;;;;;;2.94;100.00;100272.84;4996889;28;20137;-80
2021/12/20 03:58:28;;;;;;;115.28;107.90;;;;;;;2.96;100.00;100279.53;4995539;28;20197;-80
2021/12/20 04:00:57;;;;;;;119.28;111.60;;;;;;;2.64;100.00;100284.84;4996430;28;20070;-80
2021/12/20 04:03:25;;;;;;;113.05;105.35;;;;;;;2.73;100.00;100283.84;4994587;28;20047;-78
2021/12/20 04:05:52;;;;;;;115.53;107.93;;;;;;;3.00;100.00;100277.44;4997579;28;20117;-79
2021/12/20 04:08:19;;;;;;;113.22;105.78;;;;;;;3.20;100.00;100280.47;4997758;28;20081;-79
2021/12/20 04:10:46;;;;;;;110.22;102.72;;;;;;;2.53;100.00;100285.97;4991144;28;20046;-79
2021/12/20 04:13:12;;;;;;;122.03;113.72;;;;;;;2.50;100.00;100297.63;4994587;28;20132;-81
2021/12/20 04:15:40;;;;;;;126.45;117.97;;;;;;;2.47;100.00;100292.69;4998073;28;20061;-79
2021/12/20 04:18:08;;;;;;;121.82;113.72;;;;;;;3.12;100.00;100291.84;4999806;28;20046;-79
2021/12/20 04:20:35;;;;;;;115.05;107.28;;;;;;;2.88;100.00;100299.75;4996088;28;20120;-79
2021/12/20 04:23:05;;;;;;;120.88;112.88;;;;;;;2.45;100.00;100297.31;4996128;28;20435;-79
2021/12/20 04:25:32;;;;;;;130.07;120.90;;;;;;;2.63;100.00;100298.94;4991518;28;20042;-79
2021/12/20 04:27:58;;;;;;;127.70;119.10;;;;;;;2.49;100.00;100296.00;4991574;28;20105;-79
2021/12/20 04:30:28;;;;;;;134.20;125.40;;;;;;;2.51;100.00;100296.66;4997596;28;20488;-80
2021/12/20 04:32:55;;;;;;;139.75;130.20;;;;;;;3.11;100.00;100297.22;4996898;28;20450;-81
2021/12/20 04:35:23;;;;;;;133.70;125.03;;;;;;;2.61;100.00;100306.16;4983064;28;20058;-79
2021/12/20 04:37:51;;;;;;;143.65;134.32;;;;;;;3.83;100.00;100297.97;4991573;28;20467;-79
2021/12/20 04:40:20;;;;;;;119.55;111.57;;;;;;;2.68;100.00;100301.88;4994813;28;20054;-79
2021/12/20 04:42:51;;;;;;;121.72;113.72;;;;;;;2.88;100.00;100302.38;4995722;28;20130;-80
2021/12/20 04:45:18;;;;;;;127.30;118.80;;;;;;;2.67;100.00;100313.38;4986473;28;20109;-79
2021/12/20 04:47:45;;;;;;;125.40;117.10;;;;;;;2.74;100.00;100314.34;4999844;28;20042;-81
2021/12/20 04:50:12;;;;;;;121.70;113.72;;;;;;;2.56;100.00;100327.59;4996868;28;20108;-79
2021/12/20 04:52:41;;;;;;;116.30;108.10;;;;;;;2.52;100.00;100329.75;4997549;28;20548;-78
2021/12/20 04:55:09;;;;;;;129.45;120.57;;;;;;;2.72;100.00;100338.13;4996263;28;20042;-80
2021/12/20 04:57:37;;;;;;;126.95;118.80;;;;;;;3.93;100.00;100329.28;4990203;28;20437;-79
2021/12/20 05:00:04;;;;;;;115.05;107.05;;;;;;;3.02;100.00;100335.78;4998777;28;20050;-78
2021/12/20 05:02:31;;;;;;;119.93;111.40;;;;;;;2.65;100.00;100336.31;4993735;28;20062;-78
2021/12/20 05:04:58;;;;;;;125.03;116.15;;;;;;;2.80;100.00;100329.41;4995941;28;20132;-80
2021/12/20 05:07:26;;;;;;;128.35;119.68;;;;;;;2.78;100.00;100336.63;4996532;28;20054;-80
2021/12/20 05:09:59;;;;;;;131.35;122.15;;;;;;;2.84;100.00;100335.97;4995305;28;20089;-77
2021/12/20 05:12:25;;;;;;;140.40;130.52;;;;;;;2.71;100.00;100344.31;4994625;28;20065;-78
2021/12/20 05:14:52;;;;;;;146.73;136.75;;;;;;;3.44;100.00;100338.16;4995847;28;20054;-80
2021/12/20 05:17:19;;;;;;;132.18;123.00;;;;;;;3.41;100.00;100343.75;4994123;28;20050;-79
2021/12/20 05:19:46;;;;;;;132.55;123.82;;;;;;;4.04;100.00;100343.84;4995508;28;20058;-78
2021/12/20 05:22:13;;;;;;;129.85;120.72;;;;;;;2.97;100.00;100349.41;4994931;28;20128;-79
2021/12/20 05:24:40;;;;;;;128.13;118.85;;;;;;;3.19;100.00;100352.34;4995154;28;20046;-81
2021/12/20 05:27:08;;;;;;;137.75;127.60;;;;;;;3.10;100.00;100353.34;4989067;28;20050;-81
2021/12/20 05:29:34;;;;;;;137.63;128.13;;;;;;;3.31;100.00;100351.00;4995185;28;20050;-79
2021/12/20 05:32:04;;;;;;;138.60;128.75;;;;;;;2.79;100.00;100351.41;4994426;28;20050;-79
2021/12/20 05:34:31;;;;;;;147.82;136.95;;;;;;;2.96;100.00;100352.19;4992850;28;20051;-79
2021/12/20 05:36:58;;;;;;;150.52;139.68;;;;;;;3.22;100.00;100352.81;4988744;28;20468;-79
2021/12/20 05:39:25;;;;;;;140.57;130.93;;;;;;;3.10;100.00;100351.53;4995958;28;20046;-78
2021/12/20 05:41:53;;;;;;;156.27;145.45;;;;;;;2.86;100.00;100352.38;4997584;28;20064;-80
2021/12/20 05:44:21;;;;;;;163.15;151.75;;;;;;;3.08;100.00;100355.31;4989826;28;20046;-80
2021/12/20 05:46:48;;;;;;;148.57;138.18;;;;;;;3.59;100.00;100355.84;4994483;28;20125;-81
2021/12/20 05:49:14;;;;;;;142.15;131.85;;;;;;;3.33;100.00;100346.41;4996699;28;20050;-78
2021/12/20 05:51:41;;;;;;;143.45;133.23;;;;;;;3.16;100.00;100360.53;4993295;28;20128;-80
2021/12/20 05:54:08;;;;;;;142.23;132.52;;;;;;;4.15;100.00;100358.44;4993594;28;20046;-80
2021/12/20 05:56:35;;;;;;;138.10;128.45;;;;;;;2.94;100.00;100355.00;4990346;28;20475;-79
2021/12/20 05:59:02;;;;;;;147.48;137.52;;;;;;;3.53;100.00;100357.34;4992084;28;20113;-82
2021/12/20 06:01:30;;;;;;;133.75;123.93;;;;;;;2.96;100.00;100355.63;4991920;28;20136;-78
2021/12/20 06:03:57;;;;;;;154.30;142.45;;;;;;;2.90;100.00;100358.09;4994897;28;20116;-79
2021/12/20 06:06:27;;;;;;;146.32;134.63;;;;;;;3.79;100.00;100351.03;4992944;28;20502;-78
2021/12/20 06:08:53;;;;;;;153.23;140.75;;;;;;;2.94;100.00;100359.44;4990963;28;20047;-81
2021/12/20 06:11:20;;;;;;;147.52;135.73;;;;;;;3.24;100.00;100363.16;4998075;28;20047;-79
2021/12/20 06:13:47;;;;;;;149.68;136.60;;;;;;;2.90;100.00;100373.84;4997277;28;20466;-80
2021/12/20 06:16:14;;;;;;;150.20;136.70;;;;;;;3.62;100.00;100372.09;4999983;28;20054;-80
2021/12/20 06:18:42;;;;;;;153.35;139.48;;;;;;;3.64;100.00;100371.94;5000363;28;20414;-79
2021/12/20 06:21:09;;;;;;;154.82;141.25;;;;;;;3.60;100.00;100366.19;5000324;28;20054;-79
2021/12/20 06:23:36;;;;;;;142.70;130.10;;;;;;;4.89;100.00;100364.00;4995349;28;20051;-81
2021/12/20 06:26:03;;;;;;;129.52;118.05;;;;;;;4.07;100.00;100362.72;4999619;28;20538;-78
2021/12/20 06:28:30;;;;;;;132.10;120.32;;;;;;;3.92;100.00;100376.75;4996655;28;20050;-80
2021/12/20 06:30:57;;;;;;;143.77;130.60;;;;;;;4.77;100.00;100382.81;4995783;28;20050;-80
2021/12/20 06:33:24;;;;;;;126.78;115.43;;;;;;;3.78;100.00;100378.28;4995450;28;20117;-80
2021/12/20 06:35:53;;;;;;;138.60;126.10;;;;;;;3.91;100.00;100383.81;4994289;28;20050;-79
2021/12/20 06:38:21;;;;;;;135.77;123.50;;;;;;;3.51;100.00;100387.38;4993783;28;20142;-80
2021/12/20 06:40:50;;;;;;;143.57;130.90;;;;;;;3.57;100.00;100397.22;4994837;28;20133;-80
2021/12/20 06:43:18;;;;;;;139.68;126.57;;;;;;;3.15;100.00;100404.34;4995475;28;20058;-80
2021/12/20 06:45:46;;;;;;;141.43;128.82;;;;;;;3.48;100.00;100411.34;4995699;28;20140;-80
2021/12/20 06:48:13;;;;;;;142.07;129.38;;;;;;;3.58;100.00;100393.63;4994875;28;20050;-81
2021/12/20 06:50:40;;;;;;;142.93;129.73;;;;;;;3.20;100.00;100399.41;4995255;28;20047;-80
2021/12/20 06:53:08;;;;;;;141.82;129.07;;;;;;;3.35;100.00;100402.19;4995212;28;20058;-79
2021/12/20 06:55:35;;;;;;;143.60;131.52;;;;;;;3.87;100.00;100387.75;4995946;28;20109;-82
2021/12/20 06:58:03;;;;;;;124.85;114.07;;;;;;;3.24;100.00;100391.19;4994899;28;20132;-80
2021/12/20 07:00:30;;;;;;;121.28;110.38;;;;;;;3.33;100.00;100398.91;4995294;28;20112;-80
2021/12/20 07:02:57;;;;;;;127.18;115.65;;;;;;;3.52;100.00;100402.16;4994243;28;20066;-79
2021/12/20 07:05:24;;;;;;;127.63;116.57;;;;;;;3.92;100.00;100403.03;4995007;28;20489;-80
2021/12/20 07:07:51;;;;;;;139.50;127.10;;;;;;;3.55;100.00;100397.41;4994440;28;20042;-80
2021/12/20 07:10:19;;;;;;;127.95;116.45;;;;;;;3.55;100.00;100399.22;4994943;28;20124;-81
2021/12/20 07:12:46;;;;;;;130.65;119.28;;;;;;;4.10;100.00;100395.72;4995027;28;20042;-80
2021/12/20 07:15:14;;;;;;;141.43;128.52;;;;;;;3.74;100.00;100395.38;4995125;28;20058;-80
2021/12/20 07:17:43;;;;;;;138.75;126.00;;;;;;;3.66;100.00;100397.03;4994387;28;20046;-80
2021/12/20 07:20:11;;;;;;;133.90;121.72;;;;;;;4.52;100.00;100391.88;4995114;28;20070;-79
2021/12/20 07:22:38;;;;;;;133.55;121.63;;;;;;;3.89;100.00;100385.78;4989885;28;20050;-82
2021/12/20 07:25:06;;;;;;;129.60;118.53;;;;;;;3.96;100.00;100396.44;4994297;28;20050;-80
2021/12/20 07:27:34;;;;;;;134.70;122.85;;;;;;;4.63;100.00;100393.28;4994492;28;20046;-80
2021/12/20 07:30:01;;;;;;;123.03;111.95;;;;;;;3.66;100.00;100406.72;4994127;28;20120;-79
2021/12/20 07:32:27;;;;;;;128.55;117.57;;;;;;;3.92;100.00;100401.22;4994408;28;20104;-80
2021/12/20 07:34:54;;;;;;;126.28;115.78;;;;;;;4.38;100.00;100397.88;4994174;28;20475;-80
2021/12/20 07:37:21;;;;;;;123.53;113.18;;;;;;;4.12;100.00;100388.50;4995510;28;20107;-79
2021/12/20 07:39:48;;;;;;;118.03;107.63;;;;;;;4.43;100.00;100393.75;4994832;28;20108;-79
2021/12/20 07:42:15;;;;;;;127.88;116.57;;;;;;;3.77;100.00;100387.97;4994406;28;20050;-80
2021/12/20 07:44:44;;;;;;;120.60;110.00;;;;;;;4.48;100.00;100396.69;4994004;28;20062;-79
2021/12/20 07:47:11;;;;;;;119.55;108.88;;;;;;;3.82;100.00;100409.31;4994065;28;20137;-80
2021/12/20 07:49:38;;;;;;;119.75;109.50;;;;;;;4.08;100.00;100405.59;4995183;28;20042;-80
2021/12/20 07:52:05;;;;;;;119.05;108.80;;;;;;;4.50;100.00;100404.38;4994299;28;20050;-79
2021/12/20 07:54:32;;;;;;;120.03;110.15;;;;;;;4.57;100.00;100408.78;4993976;28;20551;-80
2021/12/20 07:56:59;;;;;;;118.15;108.55;;;;;;;4.39;100.00;100399.50;4994465;28;20062;-80
2021/12/20 07:59:26;;;;;;;115.05;105.60;;;;;;;4.31;100.00;100401.19;4995114;28;20050;-79
2021/12/20 08:01:54;;;;;;;123.10;113.05;;;;;;;4.12;100.00;100409.53;4993329;28;20062;-80
2021/12/20 08:04:21;;;;;;;116.53;106.60;;;;;;;4.26;100.00;100405.34;4993960;28;20112;-79
2021/12/20 08:06:49;;;;;;;128.80;118.20;;;;;;;3.93;100.00;100412.53;4993768;28;20082;-80
2021/12/20 08:09:16;;;;;;;128.43;117.75;;;;;;;3.87;100.00;100427.19;4993658;28;20058;-81
2021/12/20 08:11:43;;;;;;;129.27;118.55;;;;;;;3.62;100.00;100423.81;4994812;28;20054;-79
2021/12/20 08:14:09;;;;;;;132.77;122.07;;;;;;;3.96;100.00;100433.22;4993989;28;20062;-80
2021/12/20 08:16:36;;;;;;;122.22;112.10;;;;;;;3.72;100.00;100434.13;4994225;28;20050;-79
2021/12/20 08:19:04;;;;;;;124.75;115.00;;;;;;;3.31;100.00;100435.00;4993639;28;20458;-79
2021/12/20 08:21:32;;;;;;;125.72;116.10;;;;;;;4.21;100.00;100433.97;4992954;28;20054;-80
2021/12/20 08:23:58;;;;;;;130.55;119.45;;;;;;;4.27;100.00;100435.91;4993122;28;20124;-78
2021/12/20 08:26:26;;;;;;;121.30;111.15;;;;;;;3.81;100.00;100441.84;4994838;28;20479;-79
2021/12/20 08:28:53;;;;;;;117.60;107.60;;;;;;;4.20;100.00;100441.00;4993785;28;20081;-79
2021/12/20 08:31:20;;;;;;;120.20;110.40;;;;;;;4.18;100.00;100435.13;4994958;28;20054;-79
2021/12/20 08:33:47;;;;;;;123.45;113.25;;;;;;;4.09;100.00;100431.72;4992897;28;20046;-79
2021/12/20 08:36:15;;;;;;;131.32;120.22;;;;;;;3.61;100.00;100432.69;4993149;28;20125;-79
2021/12/20 08:38:42;;;;;;;122.93;112.53;;;;;;;4.20;100.00;100438.38;4993515;28;20050;-80
2021/12/20 08:41:11;;;;;;;132.63;121.60;;;;;;;4.20;100.00;100438.38;4994077;28;20054;-79
2021/12/20 08:43:38;;;;;;;131.32;120.63;;;;;;;4.30;100.00;100435.56;4992736;28;20522;-80
2021/12/20 08:46:05;;;;;;;123.75;113.40;;;;;;;4.39;100.00;100426.66;4993115;28;20054;-80
2021/12/20 08:48:32;;;;;;;128.35;117.95;;;;;;;3.86;100.00;100430.81;4992830;28;20462;-80
2021/12/20 08:51:01;;;;;;;139.13;127.93;;;;;;;3.93;100.00;100433.56;4992639;28;20553;-79
2021/12/20 08:53:29;;;;;;;134.25;123.47;;;;;;;4.56;100.00;100433.44;4992814;28;20467;-79
2021/12/20 08:55:56;;;;;;;126.68;116.43;;;;;;;4.15;100.00;100432.84;4994043;28;20058;-80
2021/12/20 08:58:24;;;;;;;130.65;119.85;;;;;;;4.43;100.00;100421.84;4992575;28;20047;-80
2021/12/20 09:00:51;;;;;;;137.02;126.03;;;;;;;4.66;100.00;100427.13;4992532;28;20046;-80
2021/12/20 09:03:18;;;;;;;124.10;114.30;;;;;;;4.75;100.00;100429.56;4993543;28;20384;-79
2021/12/20 09:05:45;;;;;;;134.52;123.47;;;;;;;5.12;100.00;100433.22;4993128;28;20116;-81
2021/12/20 09:08:12;;;;;;;127.30;117.22;;;;;;;5.23;100.00;100424.06;4992843;28;20055;-80
2021/12/20 09:10:40;;;;;;;125.03;114.75;;;;;;;4.96;100.00;100428.91;4991530;28;20050;-78
2021/12/20 09:13:07;;;;;;;127.25;117.10;;;;;;;5.11;100.00;100425.50;4992632;28;20479;-79
2021/12/20 09:15:36;;;;;;;120.38;110.40;;;;;;;5.09;100.00;100427.50;4993643;28;20050;-79
2021/12/20 09:18:04;;;;;;;118.63;108.78;;;;;;;4.99;100.00;100423.31;4992512;28;20108;-80
2021/12/20 09:20:31;;;;;;;111.28;102.13;;;;;;;4.95;100.00;100424.63;4992619;28;20054;-79
2021/12/20 09:23:05;;;;;;;110.25;101.80;;;;;;;4.80;100.00;100419.31;4992362;28;20116;-80
2021/12/20 09:25:34;;;;;;;123.43;111.78;;;;;;;5.66;100.00;100417.25;4993855;28;20068;-80
2021/12/20 09:28:03;;;;;;;116.78;107.00;;;;;;;5.20;100.00;100416.53;4992671;28;20136;-79
2021/12/20 09:30:31;;;;;;;108.82;100.32;;;;;;;5.07;100.00;100422.41;4992653;28;20093;-79
2021/12/20 09:32:59;;;;;;;108.13;99.70;;;;;;;5.05;100.00;100408.59;4992649;28;20604;-80
2021/12/20 09:35:25;;;;;;;109.90;101.18;;;;;;;5.13;100.00;100410.34;4992318;28;20049;-80
2021/12/20 09:37:52;;;;;;;109.07;100.75;;;;;;;4.59;100.00;100405.97;4991933;28;20066;-78
2021/12/20 09:40:31;;;;;;;107.88;99.22;;;;;;;4.49;100.00;100406.19;4989351;28;20607;-80
2021/12/20 09:42:59;;;;;;;112.32;103.35;;;;;;;4.82;100.00;100416.53;4992038;28;20060;-80
2021/12/20 09:45:29;;;;;;;117.75;108.75;;;;;;;5.05;100.00;100409.44;4994463;28;20113;-78
2021/12/20 09:47:56;;;;;;;117.43;108.55;;;;;;;5.33;100.00;100408.03;4991199;28;20182;-80
2021/12/20 09:50:23;;;;;;;114.95;106.25;;;;;;;5.27;100.00;100412.22;5002995;28;20112;-78
2021/12/20 09:52:50;;;;;;;113.95;104.93;;;;;;;5.68;100.00;100407.34;4994117;28;20042;-79
2021/12/20 09:55:17;;;;;;;112.43;103.18;;;;;;;4.57;100.00;100407.97;4994146;28;20046;-79
2021/12/20 09:57:48;;;;;;;122.05;112.38;;;;;;;4.93;100.00;100410.84;4994244;28;20209;-79
2021/12/20 10:00:18;;;;;;;123.13;113.15;;;;;;;5.33;100.00;100408.03;4994413;28;20115;-79
2021/12/20 10:02:47;;;;;;;124.68;114.88;;;;;;;5.80;100.00;100402.44;4994365;28;20462;-77
2021/12/20 10:05:16;;;;;;;113.90;104.47;;;;;;;5.30;100.00;100408.41;4993534;28;20054;-78
2021/12/20 10:07:47;;;;;;;108.45;99.50;;;;;;;5.28;100.00;100405.94;4993342;28;20522;-79
2021/12/20 10:10:14;;;;;;;109.65;101.00;;;;;;;6.04;100.00;100413.72;4996355;28;20467;-78
2021/12/20 10:12:49;;;;;;;104.57;96.57;;;;;;;6.00;100.00;100415.91;4993931;28;20042;-80
2021/12/20 10:15:16;;;;;;;107.53;99.45;;;;;;;5.85;100.00;100401.91;4984811;28;20497;-80
2021/12/20 10:17:56;;;;;;;100.05;92.18;;;;;;;5.65;100.00;100399.78;4992354;28;20050;-79
2021/12/20 10:20:26;;;;;;;102.78;94.32;;;;;;;5.35;100.00;100404.22;4991693;28;20077;-80
2021/12/20 10:22:54;;;;;;;106.55;97.88;;;;;;;5.15;100.00;100418.91;4992654;28;20086;-81
2021/12/20 10:25:28;;;;;;;107.82;99.30;;;;;;;5.70;100.00;100418.53;4988454;28;20050;-81
2021/12/20 10:27:55;;;;;;;105.65;97.28;;;;;;;5.18;100.00;100429.06;4992597;28;20451;-81
2021/12/20 10:30:28;;;;;;;114.45;104.45;;;;;;;4.82;100.00;100416.53;4991952;28;20102;-80
2021/12/20 10:32:58;;;;;;;111.65;102.28;;;;;;;4.63;100.00;100425.69;4984149;28;20112;-81
2021/12/20 10:35:33;;;;;;;112.78;103.47;;;;;;;4.48;100.00;100416.88;4991335;28;20058;-80
2021/12/20 10:38:03;;;;;;;110.68;101.18;;;;;;;4.41;100.00;100414.13;4991879;28;20427;-79
2021/12/20 10:40:31;;;;;;;109.10;99.25;;;;;;;4.56;100.00;100412.41;4993149;28;20058;-80
2021/12/20 10:43:00;;;;;;;110.72;100.35;;;;;;;4.57;100.00;100414.06;4992058;28;20082;-79
2021/12/20 10:45:28;;;;;;;114.05;103.60;;;;;;;4.90;100.00;100413.00;4992194;28;20464;-79
2021/12/20 10:47:55;;;;;;;119.90;110.20;;;;;;;4.99;100.00;100422.47;4992326;28;20057;-80
2021/12/20 10:50:27;;;;;;;118.82;109.18;;;;;;;5.41;100.00;100415.84;4991836;28;20499;-80
2021/12/20 10:52:55;;;;;;;108.68;100.07;;;;;;;5.37;100.00;100415.41;4993808;28;20058;-80
2021/12/20 10:55:36;;;;;;;109.40;100.75;;;;;;;5.31;100.00;100405.56;4992626;28;20077;-79
2021/12/20 10:58:28;;;;;;;105.75;97.28;;;;;;;5.18;100.00;100406.19;4992654;28;20054;-80
2021/12/20 11:01:23;;;;;;;99.97;91.97;;;;;;;5.04;100.00;100401.69;4995027;28;20061;-80
2021/12/20 11:04:01;;;;;;;109.63;101.30;;;;;;;5.23;100.00;100408.28;4989863;28;20479;-83
2021/12/20 11:06:45;;;;;;;112.93;104.13;;;;;;;5.15;100.00;100408.38;4994671;28;20466;-79
2021/12/20 11:09:17;;;;;;;114.50;105.63;;;;;;;5.11;100.00;100407.88;4994979;28;20514;-79
2021/12/20 11:11:49;;;;;;;114.60;105.32;;;;;;;4.83;100.00;100407.63;4995527;28;20137;-81
2021/12/20 11:14:18;;;;;;;111.88;103.32;;;;;;;4.95;100.00;100413.28;4994786;28;20090;-80